Terminal Aerodrome Forecast
Issued by NWS Cleveland, OH

Home | Current Version | Previous Version | Text Only | Print | Product List | Glossary Off
Versions: 1 2 3 4 5 6 7 8 9 10 11 12 13 14

000
FTUS41 KCLE 022330
TAFYNG
TAF
KYNG 022330Z 0300/0324 21012G20KT P6SM SCT050
     FM030600 23012KT P6SM BKN100
      TEMPO 0308/0310 -SHRA
     FM031500 27012KT P6SM BKN035 PROB30 0319/0323 3SM TSRA
      OVC025CB=

USA.gov is the U.S. government's official web portal to all federal, state and local government web resources and services.